Pires Coelho — CUPM6 — position and weather

sailwx.info

Track history (hours):
 
Tides and Currents Weather Stations Pressure Air Temp Water Temp Dewpoint Dewpoint Depression Visibility Wind Speed Wind Dir Waves Ship Positions

Pires Coelho

Last reported at 2018-Apr-24 10:30 UTC. Time now 2018-Apr-24 10:52 UTC.
Position N 38°41' W 009°44'.

Length 27 m.

Type: Fishing. MMSI: 263236000.

Date/timePositionNaut miles runAvg speedWind from/ knotsBaromVisibWave heightAir tempDewpointWater temp
2018-Apr-24 10:30N 38°41' W 009°44'4 7.6
2018-Apr-24 10:01N 38°43' W 009°48'2 3.9
2018-Apr-24 09:30N 38°45' W 009°50'1 1.4
2018-Apr-24 09:01N 38°45' W 009°49'1 2.6
2018-Apr-24 08:30N 38°44' W 009°47'1 2.5
2018-Apr-24 08:00N 38°43' W 009°46'1 2.8
2018-Apr-24 07:30N 38°43' W 009°45'1 2.9
2018-Apr-24 07:01N 38°42' W 009°43'1 2.8
2018-Apr-24 06:30N 38°42' W 009°42'1 2.8
2018-Apr-24 06:00N 38°40' W 009°41'2 3.9
2018-Apr-24 05:30N 38°39' W 009°40'4 8.6
2018-Apr-24 05:00N 38°35' W 009°37'4 8.4
2018-Apr-24 04:31N 38°31' W 009°35'4 7.8
2018-Apr-24 04:00N 38°27' W 009°33'4 8.1
2018-Apr-24 03:31N 38°24' W 009°31'4 7.9
2018-Apr-24 03:01N 38°20' W 009°29'4 8.0
2018-Apr-24 02:30N 38°16' W 009°27'4 8.2
2018-Apr-24 02:00N 38°12' W 009°25'4 8.2
2018-Apr-24 01:31N 38°08' W 009°24'4 8.1
2018-Apr-24 01:00N 38°05' W 009°22'4 8.2
2018-Apr-24 00:31N 38°01' W 009°20'4 8.4
2018-Apr-24 00:01N 37°57' W 009°19'4 8.8
2018-Apr-23 23:30N 37°53' W 009°17'4 8.8
2018-Apr-23 23:00N 37°49' W 009°14'5 8.8
2018-Apr-23 22:29N 37°44' W 009°12'4 8.6
2018-Apr-23 22:00N 37°40' W 009°11'3 5.5
2018-Apr-23 21:29N 37°38' W 009°09'4 7.5
2018-Apr-23 21:00N 37°35' W 009°07'3 6.7
2018-Apr-23 20:31N 37°32' W 009°06'2 4.1
2018-Apr-23 20:01N 37°30' W 009°05'1 1.0
2018-Apr-23 19:30N 37°29' W 009°05'1 2.8
2018-Apr-23 19:01N 37°28' W 009°06'2 2.6
2018-Apr-23 18:22N 37°26' W 009°06'1 0.2
2018-Apr-23 15:27N 37°27' W 009°07'1 2.8
2018-Apr-23 15:01N 37°28' W 009°07'1 1.9
2018-Apr-23 14:31N 37°29' W 009°07'0 0.2
2018-Apr-23 14:01N 37°29' W 009°07'2 0.5
2018-Apr-23 11:04N 37°27' W 009°08'0 2.9
2018-Apr-23 11:00N 37°27' W 009°08'2 3.2
2018-Apr-23 10:28N 37°29' W 009°08'0 0.1
2018-Apr-23 10:00N 37°29' W 009°08'2 2.2
2018-Apr-23 09:10N 37°27' W 009°08'0 2.8
2018-Apr-23 09:00N 37°27' W 009°08'3 2.9
2018-Apr-23 07:54N 37°24' W 009°09'1 1.4
2018-Apr-23 07:24N 37°24' W 009°08'3 2.8
2018-Apr-23 06:23N 37°26' W 009°08'1 2.9
2018-Apr-23 05:58N 37°28' W 009°08'2 3.1
2018-Apr-23 05:25N 37°29' W 009°08'1 1.2
2018-Apr-23 04:59N 37°29' W 009°08'30 9.0
2018-Apr-23 01:40N 36°60' W 008°58'2 8.6
2018-Apr-23 01:28N 36°59' W 008°56'1 3.0
2018-Apr-23 01:00N 37°01' W 008°56'0 0.0
2018-Apr-23 00:30N 37°01' W 008°56'0 0.0
2018-Apr-22 23:59N 37°01' W 008°56'0 0.0
2018-Apr-22 23:30N 37°01' W 008°56'0 0.0
2018-Apr-22 23:00N 37°01' W 008°56'0 0.0
2018-Apr-22 22:30N 37°01' W 008°56'0 0.0
2018-Apr-22 20:55N 37°01' W 008°56'0 0.0
2018-Apr-22 20:29N 37°01' W 008°56'0 0.0
2018-Apr-22 19:32N 37°01' W 008°56'0 0.0
2018-Apr-22 19:29N 37°01' W 008°56'0 0.0
2018-Apr-22 17:57N 37°01' W 008°56'27 8.7
2018-Apr-22 14:48N 37°26' W 009°07'2 7.8
2018-Apr-22 14:30N 37°29' W 009°08'0 0.3
2018-Apr-22 14:01N 37°29' W 009°08'1 2.7
2018-Apr-22 13:30N 37°27' W 009°08'2 0.6
2018-Apr-22 10:10N 37°29' W 009°08'1 3.0
2018-Apr-22 09:53N 37°29' W 009°07'1 0.2
2018-Apr-22 05:50N 37°29' W 009°08'1 3.8
2018-Apr-22 05:30N 37°30' W 009°09'0 0.2
2018-Apr-22 05:00N 37°30' W 009°08'1 2.2
2018-Apr-22 04:26N 37°31' W 009°09'6 5.3
2018-Apr-22 03:23N 37°35' W 009°14'2 5.9
2018-Apr-22 03:00N 37°37' W 009°15'3 5.9
2018-Apr-22 02:31N 37°39' W 009°18'2 3.2
2018-Apr-22 02:00N 37°41' W 009°18'0 0.4
2018-Apr-22 01:30N 37°41' W 009°18'2 3.7
2018-Apr-22 01:00N 37°42' W 009°19'1 2.9
2018-Apr-22 00:31N 37°42' W 009°17'1 2.8
2018-Apr-22 00:00N 37°40' W 009°17'1 2.9
2018-Apr-21 23:31N 37°39' W 009°16'2 3.0
2018-Apr-21 23:00N 37°38' W 009°15'12 1.8
2018-Apr-21 16:28N 37°28' W 009°08'2 3.5
2018-Apr-21 16:00N 37°29' W 009°08'0 0.3
2018-Apr-21 15:30N 37°29' W 009°08'2 2.6
2018-Apr-21 14:55N 37°28' W 009°09'32 2.4
2018-Apr-21 01:41N 36°59' W 008°51'2 9.1
2018-Apr-21 01:30N 36°59' W 008°49'5 9.6
2018-Apr-21 01:00N 37°01' W 008°43'510.0
2018-Apr-21 00:31N 37°03' W 008°38'5 9.8
2018-Apr-21 00:01N 37°06' W 008°33'2 4.7
2018-Apr-20 23:31N 37°08' W 008°32'0 0.0
2018-Apr-20 23:00N 37°08' W 008°32'0 0.0
2018-Apr-20 22:31N 37°08' W 008°32'0 0.0
2018-Apr-20 22:00N 37°08' W 008°32'0 0.0
2018-Apr-20 21:30N 37°08' W 008°32'0 0.0
2018-Apr-20 21:00N 37°08' W 008°32'0 0.0
2018-Apr-20 20:30N 37°08' W 008°32'0 0.0
2018-Apr-20 20:00N 37°08' W 008°32'0 0.0
2018-Apr-20 19:30N 37°08' W 008°32'0 0.0
2018-Apr-20 19:00N 37°08' W 008°32'0 0.0
2018-Apr-20 18:30N 37°08' W 008°32'0 0.0
2018-Apr-20 18:00N 37°08' W 008°32'0 0.0
2018-Apr-20 17:28N 37°08' W 008°32'0 0.0
2018-Apr-20 17:00N 37°08' W 008°32'0 0.0
2018-Apr-20 16:30N 37°08' W 008°32'0 0.0
2018-Apr-20 16:00N 37°08' W 008°32'0 0.0
2018-Apr-20 15:30N 37°08' W 008°32'0 0.0
2018-Apr-20 15:00N 37°08' W 008°32'0 0.0
2018-Apr-20 14:30N 37°08' W 008°32'0 0.0
2018-Apr-20 14:00N 37°08' W 008°32'0 0.0
2018-Apr-20 13:30N 37°08' W 008°32'0 0.0
2018-Apr-20 13:00N 37°08' W 008°32'0 0.0
2018-Apr-20 12:30N 37°08' W 008°32'0 0.0
2018-Apr-20 12:00N 37°08' W 008°32'0 0.0
2018-Apr-20 11:30N 37°08' W 008°32'0 0.0
2018-Apr-20 11:00N 37°08' W 008°32'0 0.0
2018-Apr-20 10:21N 37°08' W 008°32'0 0.3
2018-Apr-20 10:01N 37°08' W 008°32'0 0.0
2018-Apr-20 09:30N 37°08' W 008°32'0 0.0
2018-Apr-20 09:00N 37°08' W 008°32'0 0.0
2018-Apr-20 08:30N 37°08' W 008°32'0 0.0
2018-Apr-20 08:00N 37°08' W 008°32'0 0.0
2018-Apr-20 07:30N 37°08' W 008°32'0 0.0
2018-Apr-20 07:00N 37°08' W 008°32'0 0.0
2018-Apr-20 06:30N 37°08' W 008°32'0 0.0
2018-Apr-20 06:00N 37°08' W 008°32'0 0.0
2018-Apr-20 05:30N 37°08' W 008°32'0 0.0
2018-Apr-20 05:00N 37°08' W 008°32'0 0.0
2018-Apr-20 04:30N 37°08' W 008°32'0 0.0
2018-Apr-20 04:00N 37°08' W 008°32'0 0.0
2018-Apr-20 03:30N 37°08' W 008°32'0 0.0
2018-Apr-20 03:00N 37°08' W 008°32'0 0.0
2018-Apr-20 02:30N 37°08' W 008°32'0 0.0
2018-Apr-20 02:00N 37°08' W 008°32'0 0.0
2018-Apr-20 01:30N 37°08' W 008°32'0 0.0
2018-Apr-20 01:00N 37°08' W 008°32'0 0.0
2018-Apr-20 00:30N 37°08' W 008°32'0 0.0
2018-Apr-20 00:00N 37°08' W 008°32'0 0.0
2018-Apr-19 23:30N 37°08' W 008°32'0 0.0
2018-Apr-19 23:00N 37°08' W 008°32'0 0.0
2018-Apr-19 22:30N 37°08' W 008°32'0 0.0
2018-Apr-19 22:00N 37°08' W 008°32'0 0.0
2018-Apr-19 21:30N 37°08' W 008°32'0 0.0
2018-Apr-19 21:00N 37°08' W 008°32'0 0.0
2018-Apr-19 20:30N 37°08' W 008°32'0 0.0
2018-Apr-19 20:00N 37°08' W 008°32'0 0.0
2018-Apr-19 19:30N 37°08' W 008°32'0 0.0
2018-Apr-19 19:00N 37°08' W 008°32'0 0.0
2018-Apr-19 18:30N 37°08' W 008°32'0 0.0
2018-Apr-19 18:00N 37°08' W 008°32'0 0.0
2018-Apr-19 17:30N 37°08' W 008°32'1 1.9
2018-Apr-19 17:00N 37°07' W 008°31'4 7.9
2018-Apr-19 16:30N 37°03' W 008°30'4 8.6
2018-Apr-19 16:00N 36°60' W 008°27'4 7.9
2018-Apr-19 15:30N 36°56' W 008°24'4 7.1
2018-Apr-19 15:00N 36°53' W 008°22'3 6.6
2018-Apr-19 14:30N 36°50' W 008°20'6 2.6
2018-Apr-19 12:18N 36°48' W 008°14'1 2.9
2018-Apr-19 12:00N 36°48' W 008°13'1 2.8
2018-Apr-19 11:30N 36°48' W 008°11'5 0.7
2018-Apr-19 04:12N 36°51' W 008°06'2 8.9
2018-Apr-19 04:00N 36°51' W 008°08'4 9.1
2018-Apr-19 03:30N 36°50' W 008°14'6 9.1
2018-Apr-19 02:54N 36°49' W 008°21'4 9.3
2018-Apr-19 02:28N 36°49' W 008°26'4 9.3
2018-Apr-19 02:00N 36°48' W 008°31'8 2.5
2018-Apr-18 22:50N 36°47' W 008°41'1 3.1
2018-Apr-18 22:28N 36°46' W 008°42'1 2.8
2018-Apr-18 21:58N 36°47' W 008°44'7 0.7
2018-Apr-18 12:21N 36°48' W 008°52'2 0.6
2018-Apr-18 09:49N 36°50' W 008°52'1 2.5
2018-Apr-18 09:19N 36°49' W 008°52'7 1.8
2018-Apr-18 05:18N 36°50' W 009°01'2 6.7
2018-Apr-18 05:00N 36°51' W 008°60'4 7.0
2018-Apr-18 04:30N 36°55' W 008°58'3 6.9
2018-Apr-18 04:00N 36°58' W 008°56'3 5.8
2018-Apr-18 03:30N 37°01' W 008°56'0 0.2
2018-Apr-18 03:00N 37°01' W 008°56'0 0.0
2018-Apr-18 02:29N 37°01' W 008°56'0 0.0
2018-Apr-18 02:00N 37°01' W 008°56'0 0.0
2018-Apr-18 01:30N 37°01' W 008°56'0 0.0
2018-Apr-18 01:00N 37°01' W 008°56'0 0.0
2018-Apr-18 00:29N 37°01' W 008°56'0 0.0
2018-Apr-18 00:00N 37°01' W 008°56'0 0.0
2018-Apr-17 23:30N 37°01' W 008°56'0 0.0
2018-Apr-17 23:00N 37°01' W 008°56'0 0.0
2018-Apr-17 22:28N 37°01' W 008°56'0 0.0
2018-Apr-17 22:00N 37°01' W 008°56'0 0.0
2018-Apr-17 21:29N 37°01' W 008°56'0 0.0
2018-Apr-17 20:59N 37°01' W 008°56'0 0.0
2018-Apr-17 20:29N 37°01' W 008°56'0 0.0
2018-Apr-17 19:58N 37°01' W 008°56'0 0.0
2018-Apr-17 19:10N 37°01' W 008°56'0 0.1
2018-Apr-17 18:58N 37°01' W 008°56'16 7.9
2018-Apr-17 16:59N 36°46' W 009°03'10 2.5
2018-Apr-17 12:52N 36°48' W 008°50'3 3.2
2018-Apr-17 11:49N 36°48' W 008°46'0 0.7
2018-Apr-17 11:25N 36°48' W 008°46'0 0.0
2018-Apr-17 11:00N 36°48' W 008°46'2 2.8
2018-Apr-17 10:18N 36°48' W 008°48'1 2.9
2018-Apr-17 10:00N 36°48' W 008°49'1 2.9
2018-Apr-17 09:30N 36°48' W 008°51'2 2.8
2018-Apr-17 08:55N 36°48' W 008°53'3 2.9
2018-Apr-17 07:44N 36°48' W 008°57'1 2.8
2018-Apr-17 07:30N 36°48' W 008°58'2 2.8
2018-Apr-17 06:49N 36°47' W 009°00'13 0.3
2018-Apr-15 05:57N 36°48' W 008°44'1 1.8
2018-Apr-15 05:30N 36°48' W 008°43'24 8.3
2018-Apr-15 02:38N 36°49' W 008°14'2 9.7
2018-Apr-15 02:29N 36°49' W 008°12'3 0.4
2018-Apr-14 18:48N 36°47' W 008°15'0 1.6
2018-Apr-14 18:30N 36°48' W 008°15'3 2.8
2018-Apr-14 17:36N 36°48' W 008°12'0 3.2
2018-Apr-14 17:29N 36°48' W 008°12'2 3.2
2018-Apr-14 16:52N 36°49' W 008°09'  
Track history (hours):
 
Tides and Currents Weather Stations Pressure Air Temp Water Temp Dewpoint Dewpoint Depression Visibility Wind Speed Wind Dir Waves Ship Positions

Pires Coelho

Last reported at 2018-Apr-24 10:30 UTC. Time now 2018-Apr-24 10:52 UTC.
Position N 38°41' W 009°44'.

Length 27 m.

Type: Fishing. MMSI: 263236000.

Date/timePositionNaut miles runAvg speedWind from/ knotsBaromVisibWave heightAir tempDewpointWater temp
2018-Apr-24 10:30N 38°41' W 009°44'4 7.6
2018-Apr-24 10:01N 38°43' W 009°48'2 3.9
2018-Apr-24 09:30N 38°45' W 009°50'1 1.4
2018-Apr-24 09:01N 38°45' W 009°49'1 2.6
2018-Apr-24 08:30N 38°44' W 009°47'1 2.5
2018-Apr-24 08:00N 38°43' W 009°46'1 2.8
2018-Apr-24 07:30N 38°43' W 009°45'1 2.9
2018-Apr-24 07:01N 38°42' W 009°43'1 2.8
2018-Apr-24 06:30N 38°42' W 009°42'1 2.8
2018-Apr-24 06:00N 38°40' W 009°41'2 3.9
2018-Apr-24 05:30N 38°39' W 009°40'4 8.6
2018-Apr-24 05:00N 38°35' W 009°37'4 8.4
2018-Apr-24 04:31N 38°31' W 009°35'4 7.8
2018-Apr-24 04:00N 38°27' W 009°33'4 8.1
2018-Apr-24 03:31N 38°24' W 009°31'4 7.9
2018-Apr-24 03:01N 38°20' W 009°29'4 8.0
2018-Apr-24 02:30N 38°16' W 009°27'4 8.2
2018-Apr-24 02:00N 38°12' W 009°25'4 8.2
2018-Apr-24 01:31N 38°08' W 009°24'4 8.1
2018-Apr-24 01:00N 38°05' W 009°22'4 8.2
2018-Apr-24 00:31N 38°01' W 009°20'4 8.4
2018-Apr-24 00:01N 37°57' W 009°19'4 8.8
2018-Apr-23 23:30N 37°53' W 009°17'4 8.8
2018-Apr-23 23:00N 37°49' W 009°14'5 8.8
2018-Apr-23 22:29N 37°44' W 009°12'4 8.6
2018-Apr-23 22:00N 37°40' W 009°11'3 5.5
2018-Apr-23 21:29N 37°38' W 009°09'4 7.5
2018-Apr-23 21:00N 37°35' W 009°07'3 6.7
2018-Apr-23 20:31N 37°32' W 009°06'2 4.1
2018-Apr-23 20:01N 37°30' W 009°05'1 1.0
2018-Apr-23 19:30N 37°29' W 009°05'1 2.8
2018-Apr-23 19:01N 37°28' W 009°06'2 2.6
2018-Apr-23 18:22N 37°26' W 009°06'1 0.2
2018-Apr-23 15:27N 37°27' W 009°07'1 2.8
2018-Apr-23 15:01N 37°28' W 009°07'1 1.9
2018-Apr-23 14:31N 37°29' W 009°07'0 0.2
2018-Apr-23 14:01N 37°29' W 009°07'2 0.5
2018-Apr-23 11:04N 37°27' W 009°08'0 2.9
2018-Apr-23 11:00N 37°27' W 009°08'2 3.2
2018-Apr-23 10:28N 37°29' W 009°08'0 0.1
2018-Apr-23 10:00N 37°29' W 009°08'2 2.2
2018-Apr-23 09:10N 37°27' W 009°08'0 2.8
2018-Apr-23 09:00N 37°27' W 009°08'3 2.9
2018-Apr-23 07:54N 37°24' W 009°09'1 1.4
2018-Apr-23 07:24N 37°24' W 009°08'3 2.8
2018-Apr-23 06:23N 37°26' W 009°08'1 2.9
2018-Apr-23 05:58N 37°28' W 009°08'2 3.1
2018-Apr-23 05:25N 37°29' W 009°08'1 1.2
2018-Apr-23 04:59N 37°29' W 009°08'30 9.0
2018-Apr-23 01:40N 36°60' W 008°58'2 8.6
2018-Apr-23 01:28N 36°59' W 008°56'1 3.0
2018-Apr-23 01:00N 37°01' W 008°56'0 0.0
2018-Apr-23 00:30N 37°01' W 008°56'0 0.0
2018-Apr-22 23:59N 37°01' W 008°56'0 0.0
2018-Apr-22 23:30N 37°01' W 008°56'0 0.0
2018-Apr-22 23:00N 37°01' W 008°56'0 0.0
2018-Apr-22 22:30N 37°01' W 008°56'0 0.0
2018-Apr-22 20:55N 37°01' W 008°56'0 0.0
2018-Apr-22 20:29N 37°01' W 008°56'0 0.0
2018-Apr-22 19:32N 37°01' W 008°56'0 0.0
2018-Apr-22 19:29N 37°01' W 008°56'0 0.0
2018-Apr-22 17:57N 37°01' W 008°56'27 8.7
2018-Apr-22 14:48N 37°26' W 009°07'2 7.8
2018-Apr-22 14:30N 37°29' W 009°08'0 0.3
2018-Apr-22 14:01N 37°29' W 009°08'1 2.7
2018-Apr-22 13:30N 37°27' W 009°08'2 0.6
2018-Apr-22 10:10N 37°29' W 009°08'1 3.0
2018-Apr-22 09:53N 37°29' W 009°07'1 0.2
2018-Apr-22 05:50N 37°29' W 009°08'1 3.8
2018-Apr-22 05:30N 37°30' W 009°09'0 0.2
2018-Apr-22 05:00N 37°30' W 009°08'1 2.2
2018-Apr-22 04:26N 37°31' W 009°09'6 5.3
2018-Apr-22 03:23N 37°35' W 009°14'2 5.9
2018-Apr-22 03:00N 37°37' W 009°15'3 5.9
2018-Apr-22 02:31N 37°39' W 009°18'2 3.2
2018-Apr-22 02:00N 37°41' W 009°18'0 0.4
2018-Apr-22 01:30N 37°41' W 009°18'2 3.7
2018-Apr-22 01:00N 37°42' W 009°19'1 2.9
2018-Apr-22 00:31N 37°42' W 009°17'1 2.8
2018-Apr-22 00:00N 37°40' W 009°17'1 2.9
2018-Apr-21 23:31N 37°39' W 009°16'2 3.0
2018-Apr-21 23:00N 37°38' W 009°15'12 1.8
2018-Apr-21 16:28N 37°28' W 009°08'2 3.5
2018-Apr-21 16:00N 37°29' W 009°08'0 0.3
2018-Apr-21 15:30N 37°29' W 009°08'2 2.6
2018-Apr-21 14:55N 37°28' W 009°09'32 2.4
2018-Apr-21 01:41N 36°59' W 008°51'2 9.1
2018-Apr-21 01:30N 36°59' W 008°49'5 9.6
2018-Apr-21 01:00N 37°01' W 008°43'510.0
2018-Apr-21 00:31N 37°03' W 008°38'5 9.8
2018-Apr-21 00:01N 37°06' W 008°33'2 4.7
2018-Apr-20 23:31N 37°08' W 008°32'0 0.0
2018-Apr-20 23:00N 37°08' W 008°32'0 0.0
2018-Apr-20 22:31N 37°08' W 008°32'0 0.0
2018-Apr-20 22:00N 37°08' W 008°32'0 0.0
2018-Apr-20 21:30N 37°08' W 008°32'0 0.0
2018-Apr-20 21:00N 37°08' W 008°32'0 0.0
2018-Apr-20 20:30N 37°08' W 008°32'0 0.0
2018-Apr-20 20:00N 37°08' W 008°32'0 0.0
2018-Apr-20 19:30N 37°08' W 008°32'0 0.0
2018-Apr-20 19:00N 37°08' W 008°32'0 0.0
2018-Apr-20 18:30N 37°08' W 008°32'0 0.0
2018-Apr-20 18:00N 37°08' W 008°32'0 0.0
2018-Apr-20 17:28N 37°08' W 008°32'0 0.0
2018-Apr-20 17:00N 37°08' W 008°32'0 0.0
2018-Apr-20 16:30N 37°08' W 008°32'0 0.0
2018-Apr-20 16:00N 37°08' W 008°32'0 0.0
2018-Apr-20 15:30N 37°08' W 008°32'0 0.0
2018-Apr-20 15:00N 37°08' W 008°32'0 0.0
2018-Apr-20 14:30N 37°08' W 008°32'0 0.0
2018-Apr-20 14:00N 37°08' W 008°32'0 0.0
2018-Apr-20 13:30N 37°08' W 008°32'0 0.0
2018-Apr-20 13:00N 37°08' W 008°32'0 0.0
2018-Apr-20 12:30N 37°08' W 008°32'0 0.0
2018-Apr-20 12:00N 37°08' W 008°32'0 0.0
2018-Apr-20 11:30N 37°08' W 008°32'0 0.0
2018-Apr-20 11:00N 37°08' W 008°32'0 0.0
2018-Apr-20 10:21N 37°08' W 008°32'0 0.3
2018-Apr-20 10:01N 37°08' W 008°32'0 0.0
2018-Apr-20 09:30N 37°08' W 008°32'0 0.0
2018-Apr-20 09:00N 37°08' W 008°32'0 0.0
2018-Apr-20 08:30N 37°08' W 008°32'0 0.0
2018-Apr-20 08:00N 37°08' W 008°32'0 0.0
2018-Apr-20 07:30N 37°08' W 008°32'0 0.0
2018-Apr-20 07:00N 37°08' W 008°32'0 0.0
2018-Apr-20 06:30N 37°08' W 008°32'0 0.0
2018-Apr-20 06:00N 37°08' W 008°32'0 0.0
2018-Apr-20 05:30N 37°08' W 008°32'0 0.0
2018-Apr-20 05:00N 37°08' W 008°32'0 0.0
2018-Apr-20 04:30N 37°08' W 008°32'0 0.0
2018-Apr-20 04:00N 37°08' W 008°32'0 0.0
2018-Apr-20 03:30N 37°08' W 008°32'0 0.0
2018-Apr-20 03:00N 37°08' W 008°32'0 0.0
2018-Apr-20 02:30N 37°08' W 008°32'0 0.0
2018-Apr-20 02:00N 37°08' W 008°32'0 0.0
2018-Apr-20 01:30N 37°08' W 008°32'0 0.0
2018-Apr-20 01:00N 37°08' W 008°32'0 0.0
2018-Apr-20 00:30N 37°08' W 008°32'0 0.0
2018-Apr-20 00:00N 37°08' W 008°32'0 0.0
2018-Apr-19 23:30N 37°08' W 008°32'0 0.0
2018-Apr-19 23:00N 37°08' W 008°32'0 0.0
2018-Apr-19 22:30N 37°08' W 008°32'0 0.0
2018-Apr-19 22:00N 37°08' W 008°32'0 0.0
2018-Apr-19 21:30N 37°08' W 008°32'0 0.0
2018-Apr-19 21:00N 37°08' W 008°32'0 0.0
2018-Apr-19 20:30N 37°08' W 008°32'0 0.0
2018-Apr-19 20:00N 37°08' W 008°32'0 0.0
2018-Apr-19 19:30N 37°08' W 008°32'0 0.0
2018-Apr-19 19:00N 37°08' W 008°32'0 0.0
2018-Apr-19 18:30N 37°08' W 008°32'0 0.0
2018-Apr-19 18:00N 37°08' W 008°32'0 0.0
2018-Apr-19 17:30N 37°08' W 008°32'1 1.9
2018-Apr-19 17:00N 37°07' W 008°31'4 7.9
2018-Apr-19 16:30N 37°03' W 008°30'4 8.6
2018-Apr-19 16:00N 36°60' W 008°27'4 7.9
2018-Apr-19 15:30N 36°56' W 008°24'4 7.1
2018-Apr-19 15:00N 36°53' W 008°22'3 6.6
2018-Apr-19 14:30N 36°50' W 008°20'6 2.6
2018-Apr-19 12:18N 36°48' W 008°14'1 2.9
2018-Apr-19 12:00N 36°48' W 008°13'1 2.8
2018-Apr-19 11:30N 36°48' W 008°11'5 0.7
2018-Apr-19 04:12N 36°51' W 008°06'2 8.9
2018-Apr-19 04:00N 36°51' W 008°08'4 9.1
2018-Apr-19 03:30N 36°50' W 008°14'6 9.1
2018-Apr-19 02:54N 36°49' W 008°21'4 9.3
2018-Apr-19 02:28N 36°49' W 008°26'4 9.3
2018-Apr-19 02:00N 36°48' W 008°31'8 2.5
2018-Apr-18 22:50N 36°47' W 008°41'1 3.1
2018-Apr-18 22:28N 36°46' W 008°42'1 2.8
2018-Apr-18 21:58N 36°47' W 008°44'7 0.7
2018-Apr-18 12:21N 36°48' W 008°52'2 0.6
2018-Apr-18 09:49N 36°50' W 008°52'1 2.5
2018-Apr-18 09:19N 36°49' W 008°52'7 1.8
2018-Apr-18 05:18N 36°50' W 009°01'2 6.7
2018-Apr-18 05:00N 36°51' W 008°60'4 7.0
2018-Apr-18 04:30N 36°55' W 008°58'3 6.9
2018-Apr-18 04:00N 36°58' W 008°56'3 5.8
2018-Apr-18 03:30N 37°01' W 008°56'0 0.2
2018-Apr-18 03:00N 37°01' W 008°56'0 0.0
2018-Apr-18 02:29N 37°01' W 008°56'0 0.0
2018-Apr-18 02:00N 37°01' W 008°56'0 0.0
2018-Apr-18 01:30N 37°01' W 008°56'0 0.0
2018-Apr-18 01:00N 37°01' W 008°56'0 0.0
2018-Apr-18 00:29N 37°01' W 008°56'0 0.0
2018-Apr-18 00:00N 37°01' W 008°56'0 0.0
2018-Apr-17 23:30N 37°01' W 008°56'0 0.0
2018-Apr-17 23:00N 37°01' W 008°56'0 0.0
2018-Apr-17 22:28N 37°01' W 008°56'0 0.0
2018-Apr-17 22:00N 37°01' W 008°56'0 0.0
2018-Apr-17 21:29N 37°01' W 008°56'0 0.0
2018-Apr-17 20:59N 37°01' W 008°56'0 0.0
2018-Apr-17 20:29N 37°01' W 008°56'0 0.0
2018-Apr-17 19:58N 37°01' W 008°56'0 0.0
2018-Apr-17 19:10N 37°01' W 008°56'0 0.1
2018-Apr-17 18:58N 37°01' W 008°56'16 7.9
2018-Apr-17 16:59N 36°46' W 009°03'10 2.5
2018-Apr-17 12:52N 36°48' W 008°50'3 3.2
2018-Apr-17 11:49N 36°48' W 008°46'0 0.7
2018-Apr-17 11:25N 36°48' W 008°46'0 0.0
2018-Apr-17 11:00N 36°48' W 008°46'2 2.8
2018-Apr-17 10:18N 36°48' W 008°48'1 2.9
2018-Apr-17 10:00N 36°48' W 008°49'1 2.9
2018-Apr-17 09:30N 36°48' W 008°51'2 2.8
2018-Apr-17 08:55N 36°48' W 008°53'3 2.9
2018-Apr-17 07:44N 36°48' W 008°57'1 2.8
2018-Apr-17 07:30N 36°48' W 008°58'2 2.8
2018-Apr-17 06:49N 36°47' W 009°00'13 0.3
2018-Apr-15 05:57N 36°48' W 008°44'1 1.8
2018-Apr-15 05:30N 36°48' W 008°43'24 8.3
2018-Apr-15 02:38N 36°49' W 008°14'2 9.7
2018-Apr-15 02:29N 36°49' W 008°12'3 0.4
2018-Apr-14 18:48N 36°47' W 008°15'0 1.6
2018-Apr-14 18:30N 36°48' W 008°15'3 2.8
2018-Apr-14 17:36N 36°48' W 008°12'0 3.2
2018-Apr-14 17:29N 36°48' W 008°12'2 3.2
2018-Apr-14 16:52N 36°49' W 008°09'  

Dump ship's entire track history